Time;durP1;ratioP1;P1;durP2;ratioP2;P2;SDS_P1;SDS_P2;PMS_P1;PMS_P2;Temp;Humidity;BMP_temperature;BMP_pressure;BME280_temperature;BME280_humidity;BME280_pressure;Samples;Min_cycle;Max_cycle;Signal;HPM_P1;HPM_P2
2021/06/15 00:00:56;;;;;;;11.25;4.03;;;;;;;16.80;55.10;96552.09;5013011;28;20046;-74
2021/06/15 00:03:23;;;;;;;8.55;3.42;;;;;;;16.79;55.16;96547.75;5012747;28;20374;-75
2021/06/15 00:05:49;;;;;;;8.20;3.40;;;;;;;16.75;54.61;96551.56;5013278;28;20049;-75
2021/06/15 00:08:16;;;;;;;12.25;4.40;;;;;;;16.69;56.03;96542.75;5012828;28;20044;-74
2021/06/15 00:10:43;;;;;;;10.23;4.05;;;;;;;16.66;56.57;96543.47;5013209;28;20041;-75
2021/06/15 00:13:11;;;;;;;8.25;3.50;;;;;;;16.66;56.15;96540.72;5012762;28;20050;-76
2021/06/15 00:15:40;;;;;;;9.38;4.20;;;;;;;16.65;55.56;96536.34;5012920;28;20509;-75
2021/06/15 00:18:07;;;;;;;8.43;3.88;;;;;;;16.64;55.56;96543.81;5012548;28;20038;-74
2021/06/15 00:20:33;;;;;;;7.40;3.60;;;;;;;16.58;56.53;96531.47;5012972;28;20441;-75
2021/06/15 00:23:00;;;;;;;8.70;4.00;;;;;;;16.52;56.74;96538.38;5012764;28;20053;-75
2021/06/15 00:25:26;;;;;;;7.15;3.45;;;;;;;16.48;56.85;96536.69;5012266;28;20057;-75
2021/06/15 00:27:53;;;;;;;7.80;3.63;;;;;;;16.42;57.04;96539.69;5012876;28;20493;-74
2021/06/15 00:30:21;;;;;;;10.80;4.07;;;;;;;16.41;56.93;96540.84;5011985;28;20412;-75
2021/06/15 00:32:51;;;;;;;8.57;4.63;;;;;;;16.39;57.64;96536.84;5012725;28;20563;-74
2021/06/15 00:35:17;;;;;;;7.38;3.90;;;;;;;16.37;58.27;96536.41;5012173;28;20591;-74
2021/06/15 00:37:44;;;;;;;7.97;3.63;;;;;;;16.33;58.20;96539.03;5012665;28;20052;-75
2021/06/15 00:40:11;;;;;;;7.63;3.75;;;;;;;16.35;56.83;96539.50;5012177;28;20053;-77
2021/06/15 00:42:39;;;;;;;9.38;3.50;;;;;;;16.36;57.78;96535.59;5012401;28;20053;-77
2021/06/15 00:45:07;;;;;;;8.55;3.92;;;;;;;16.31;58.60;96541.34;5011981;28;20038;-76
2021/06/15 00:47:34;;;;;;;11.00;3.63;;;;;;;16.24;57.86;96538.41;5012633;28;20104;-77
2021/06/15 00:50:02;;;;;;;8.50;4.00;;;;;;;16.20;57.25;96536.72;5012410;28;20497;-78
2021/06/15 00:52:29;;;;;;;8.13;3.60;;;;;;;16.15;57.48;96535.00;5012197;28;20053;-74
2021/06/15 00:54:58;;;;;;;7.88;3.90;;;;;;;16.13;57.66;96537.28;5012326;28;20050;-74
2021/06/15 00:57:26;;;;;;;7.65;3.58;;;;;;;16.14;57.74;96538.91;5011870;28;20042;-77
2021/06/15 00:59:53;;;;;;;11.07;3.83;;;;;;;16.13;58.21;96537.28;5012079;28;20038;-74
2021/06/15 01:02:19;;;;;;;9.05;4.03;;;;;;;16.12;57.99;96541.19;5011529;28;20052;-75
2021/06/15 01:04:46;;;;;;;8.40;3.97;;;;;;;16.11;58.57;96539.59;5012286;28;20042;-75
2021/06/15 01:07:20;;;;;;;9.88;3.90;;;;;;;16.09;57.65;96536.41;5011582;28;20515;-74
2021/06/15 01:09:52;;;;;;;8.98;3.45;;;;;;;16.05;58.40;96536.31;5012007;28;20092;-75
2021/06/15 01:12:29;;;;;;;8.38;3.15;;;;;;;16.06;57.17;96526.13;5011959;28;20536;-75
2021/06/15 01:15:04;;;;;;;8.15;3.60;;;;;;;16.04;58.84;96528.41;5012042;28;20042;-76
2021/06/15 01:17:37;;;;;;;8.00;3.70;;;;;;;15.98;59.21;96530.63;5011570;28;20046;-76
2021/06/15 01:20:12;;;;;;;6.32;3.55;;;;;;;15.89;58.00;96529.94;5011606;28;20053;-74
2021/06/15 01:23:08;;;;;;;6.90;3.55;;;;;;;15.83;58.54;96526.66;5011999;28;20046;-74
2021/06/15 01:25:46;;;;;;;9.32;3.95;;;;;;;15.75;58.24;96522.06;5011912;28;20532;-75
2021/06/15 01:28:19;;;;;;;10.35;4.10;;;;;;;15.73;59.14;96518.91;5011416;28;20049;-75
2021/06/15 01:30:54;;;;;;;7.20;3.67;;;;;;;15.69;59.01;96512.50;5007205;28;20042;-76
2021/06/15 01:33:21;;;;;;;8.55;4.13;;;;;;;15.66;59.64;96518.69;5011232;28;20459;-75
2021/06/15 01:35:50;;;;;;;8.75;4.30;;;;;;;15.63;60.09;96520.16;5011115;28;20412;-75
2021/06/15 01:38:20;;;;;;;10.13;4.30;;;;;;;15.62;59.80;96515.81;5011306;28;20053;-74
2021/06/15 01:40:51;;;;;;;9.65;4.20;;;;;;;15.60;60.35;96526.31;5011388;28;20046;-74
2021/06/15 01:43:25;;;;;;;12.63;4.53;;;;;;;15.63;60.14;96522.91;5011204;28;20046;-76
2021/06/15 01:45:53;;;;;;;;;;;;;;;15.61;59.95;96521.66;5011977;28;20046;-74
2021/06/15 01:48:27;;;;;;;8.40;3.90;;;;;;;15.57;59.82;96520.72;5011114;28;20355;-75
2021/06/15 01:50:56;;;;;;;9.93;3.90;;;;;;;15.58;59.12;96511.34;5011500;28;20045;-75
2021/06/15 01:53:23;;;;;;;7.85;3.80;;;;;;;15.56;59.50;96519.13;5010963;28;20052;-77
2021/06/15 01:55:52;;;;;;;7.03;3.85;;;;;;;15.54;59.08;96515.91;5011633;28;20057;-74
2021/06/15 01:58:23;;;;;;;9.43;3.85;;;;;;;15.50;59.81;96510.31;5010981;28;20511;-73
2021/06/15 02:00:51;;;;;;;13.20;5.07;;;;;;;15.45;60.53;96507.00;5011170;28;20045;-74
2021/06/15 02:03:18;;;;;;;9.93;4.30;;;;;;;15.39;61.34;96510.00;5010933;28;20096;-74
2021/06/15 02:05:50;;;;;;;7.93;3.60;;;;;;;15.35;60.63;96502.81;5011525;28;20045;-74
2021/06/15 02:08:23;;;;;;;8.30;4.00;;;;;;;15.30;60.65;96503.06;5010881;28;20515;-74
2021/06/15 02:10:50;;;;;;;6.78;3.72;;;;;;;15.24;60.98;96502.47;5011453;28;20052;-74
2021/06/15 02:13:18;;;;;;;9.55;4.15;;;;;;;15.19;61.28;96505.47;5010949;28;20045;-74
2021/06/15 02:15:49;;;;;;;6.60;3.45;;;;;;;15.14;61.12;96503.75;5011185;28;20405;-77
2021/06/15 02:18:19;;;;;;;9.90;4.25;;;;;;;15.07;61.92;96503.50;5010851;28;20064;-76
2021/06/15 02:20:46;;;;;;;9.07;3.58;;;;;;;15.07;60.87;96502.72;5011001;28;20481;-75
2021/06/15 02:23:19;;;;;;;10.48;3.85;;;;;;;14.99;61.71;96500.91;5010765;28;20045;-75
2021/06/15 02:25:46;;;;;;;6.57;3.83;;;;;;;14.90;60.98;96498.25;5011132;28;20045;-79
2021/06/15 02:28:13;;;;;;;7.88;3.72;;;;;;;14.88;61.49;96506.03;5010644;28;20057;-76
2021/06/15 02:30:39;;;;;;;9.35;4.20;;;;;;;14.82;61.65;96505.44;5005580;28;20438;-76
2021/06/15 02:33:11;;;;;;;9.68;4.20;;;;;;;14.80;62.02;96504.97;5010716;28;20042;-74
2021/06/15 02:35:47;;;;;;;11.35;4.28;;;;;;;14.81;61.99;96512.06;5009473;28;20046;-74
2021/06/15 02:38:19;;;;;;;9.35;4.32;;;;;;;14.82;62.16;96502.69;5010678;28;20124;-77
2021/06/15 02:40:45;;;;;;;7.30;3.95;;;;;;;14.84;61.89;96505.91;5010921;28;20412;-74
2021/06/15 02:43:13;;;;;;;6.90;3.75;;;;;;;14.84;61.59;96505.91;5010499;28;20053;-74
2021/06/15 02:45:42;;;;;;;10.27;4.22;;;;;;;14.83;61.67;96507.06;5010910;28;20052;-76
2021/06/15 02:48:13;;;;;;;10.95;4.43;;;;;;;14.80;62.10;96515.94;5012308;28;20467;-75
2021/06/15 02:50:40;;;;;;;7.35;3.80;;;;;;;14.76;62.32;96506.00;5014752;28;20045;-75
2021/06/15 02:53:11;;;;;;;11.45;4.20;;;;;;;14.74;62.23;96506.34;5014160;28;20052;-75
2021/06/15 02:55:40;;;;;;;10.98;4.40;;;;;;;14.65;62.37;96507.59;5014591;28;20050;-75
2021/06/15 02:58:08;;;;;;;9.77;4.35;;;;;;;14.58;62.82;96505.41;5014181;28;20053;-74
2021/06/15 03:00:35;;;;;;;8.98;4.00;;;;;;;14.54;63.32;96509.97;5014492;28;20412;-75
2021/06/15 03:03:05;;;;;;;9.20;4.07;;;;;;;14.52;63.59;96509.53;5014029;28;20041;-73
2021/06/15 03:05:33;;;;;;;8.82;4.35;;;;;;;14.52;63.47;96510.31;5014315;28;20050;-75
2021/06/15 03:08:00;;;;;;;13.45;4.60;;;;;;;14.48;63.65;96523.09;5014341;28;20038;-76
2021/06/15 03:10:28;;;;;;;9.93;4.05;;;;;;;14.44;63.59;96524.06;5014077;28;20049;-75
2021/06/15 03:13:00;;;;;;;9.82;4.43;;;;;;;14.36;63.26;96518.34;5014376;28;20092;-75
2021/06/15 03:15:36;;;;;;;11.20;4.97;;;;;;;14.32;63.24;96522.09;5013911;28;20065;-75
2021/06/15 03:18:05;;;;;;;10.70;4.72;;;;;;;14.26;62.58;96529.75;5013749;28;20053;-73
2021/06/15 03:20:34;;;;;;;12.23;4.65;;;;;;;14.21;62.97;96527.22;5014021;28;20057;-76
2021/06/15 03:23:07;;;;;;;11.50;4.30;;;;;;;14.19;62.66;96529.47;5014101;28;20049;-75
2021/06/15 03:25:36;;;;;;;9.00;4.20;;;;;;;14.19;63.16;96529.47;5013948;28;20053;-75
2021/06/15 03:28:08;;;;;;;8.43;4.15;;;;;;;14.25;63.60;96522.66;5013889;28;20042;-76
2021/06/15 03:30:35;;;;;;;8.98;4.40;;;;;;;14.29;63.04;96534.53;5014083;28;20123;-75
2021/06/15 03:33:06;;;;;;;9.88;4.28;;;;;;;14.28;63.60;96530.19;5013676;28;20053;-73
2021/06/15 03:35:38;;;;;;;9.82;4.43;;;;;;;14.26;64.31;96535.22;5014109;28;20046;-74
2021/06/15 03:38:07;;;;;;;9.48;4.35;;;;;;;14.28;64.05;96526.66;5013774;28;20496;-74
2021/06/15 03:40:37;;;;;;;12.20;5.05;;;;;;;14.26;63.75;96529.75;5013811;28;20500;-75
2021/06/15 03:43:06;;;;;;;10.30;4.35;;;;;;;14.28;63.68;96532.13;5013449;28;20042;-73
2021/06/15 03:45:37;;;;;;;8.35;4.15;;;;;;;14.30;64.41;96536.16;5013497;28;20480;-75
2021/06/15 03:48:06;;;;;;;11.93;4.85;;;;;;;14.32;64.44;96533.06;5013311;28;20042;-74
2021/06/15 03:50:35;;;;;;;8.80;4.10;;;;;;;14.36;63.51;96534.00;5013556;28;20045;-74
2021/06/15 03:53:04;;;;;;;8.95;3.78;;;;;;;14.40;63.24;96531.38;5013396;28;20042;-72
2021/06/15 03:55:31;;;;;;;8.52;4.18;;;;;;;14.41;63.31;96541.19;5013523;28;20501;-74
2021/06/15 03:57:58;;;;;;;8.73;4.13;;;;;;;14.45;63.48;96537.44;5013601;28;20041;-74
2021/06/15 04:00:25;;;;;;;8.45;4.07;;;;;;;14.46;63.62;96538.22;5011867;28;20050;-75
2021/06/15 04:02:55;;;;;;;10.07;4.75;;;;;;;14.41;63.96;96536.53;5013392;28;20048;-76
2021/06/15 04:05:26;;;;;;;11.35;4.97;;;;;;;14.45;64.25;96539.38;5012472;28;20053;-76
2021/06/15 04:07:55;;;;;;;10.70;4.78;;;;;;;14.50;64.70;96536.44;5013269;28;20050;-75
2021/06/15 04:10:23;;;;;;;13.00;5.93;;;;;;;14.51;64.72;96535.31;5012698;28;20054;-77
2021/06/15 04:12:51;;;;;;;10.73;4.10;;;;;;;14.50;64.54;96537.25;5013531;28;20125;-76
2021/06/15 04:15:18;;;;;;;11.98;4.80;;;;;;;14.57;64.30;96536.72;5012478;28;20516;-76
2021/06/15 04:17:48;;;;;;;11.80;4.85;;;;;;;14.59;64.73;96524.25;5013100;28;20485;-76
2021/06/15 04:20:16;;;;;;;13.55;4.78;;;;;;;14.60;64.24;96531.34;5012505;28;20042;-78
2021/06/15 04:22:45;;;;;;;6.78;4.00;;;;;;;14.62;64.18;96525.53;5012921;28;20060;-76
2021/06/15 04:25:17;;;;;;;10.35;4.35;;;;;;;14.68;64.47;96529.66;5012415;28;20046;-76
2021/06/15 04:27:46;;;;;;;12.55;4.28;;;;;;;14.70;63.88;96521.88;5012989;28;20046;-77
2021/06/15 04:30:15;;;;;;;10.73;4.32;;;;;;;14.74;63.85;96533.78;5012220;28;20049;-76
2021/06/15 04:32:46;;;;;;;8.88;4.13;;;;;;;14.79;64.31;96536.28;5012758;28;20121;-76
2021/06/15 04:35:15;;;;;;;11.13;4.90;;;;;;;14.83;64.54;96537.22;5012190;28;20041;-76
2021/06/15 04:37:42;;;;;;;11.40;4.70;;;;;;;14.87;63.59;96543.59;5012728;28;20046;-77
2021/06/15 04:40:19;;;;;;;9.77;5.03;;;;;;;14.81;62.24;96538.69;5012526;28;20049;-76
2021/06/15 04:42:58;;;;;;;9.43;4.30;;;;;;;14.78;61.82;96540.19;5012339;28;20125;-77
2021/06/15 04:45:29;;;;;;;14.88;4.90;;;;;;;14.84;62.45;96543.50;5012121;28;20049;-76
2021/06/15 04:48:03;;;;;;;11.93;5.32;;;;;;;14.91;63.21;96542.91;5012544;28;20508;-76
2021/06/15 04:50:32;;;;;;;11.77;5.45;;;;;;;14.97;63.51;96536.88;5012284;28;20116;-76
2021/06/15 04:53:01;;;;;;;8.75;4.55;;;;;;;15.06;64.18;96545.00;5012465;28;20046;-76
2021/06/15 04:55:31;;;;;;;8.65;3.88;;;;;;;15.13;61.71;96535.03;5012301;28;20069;-76
2021/06/15 04:57:58;;;;;;;8.93;4.28;;;;;;;15.13;60.96;96535.03;5012507;28;20050;-76
2021/06/15 05:00:27;;;;;;;8.32;4.25;;;;;;;15.13;60.66;96531.50;5011590;28;20054;-77
2021/06/15 05:02:54;;;;;;;8.20;4.40;;;;;;;15.20;61.31;96534.50;5012212;28;20049;-77
2021/06/15 05:05:22;;;;;;;10.70;4.45;;;;;;;15.28;62.07;96530.03;5011561;28;20053;-76
2021/06/15 05:07:54;;;;;;;8.82;4.18;;;;;;;15.37;62.44;96531.50;5012312;28;20052;-76
2021/06/15 05:10:22;;;;;;;7.22;4.03;;;;;;;15.49;63.36;96527.13;5011710;28;20042;-76
2021/06/15 05:12:53;;;;;;;13.02;4.47;;;;;;;15.55;64.22;96536.72;5011969;28;20409;-76
2021/06/15 05:15:22;;;;;;;10.60;4.80;;;;;;;15.61;64.20;96532.63;5011656;28;20049;-77
2021/06/15 05:17:52;;;;;;;7.03;4.15;;;;;;;15.69;64.36;96528.97;5012044;28;20046;-76
2021/06/15 05:20:21;;;;;;;9.73;4.60;;;;;;;15.78;63.89;96537.88;5011551;28;20052;-76
2021/06/15 05:22:53;;;;;;;9.65;4.47;;;;;;;15.90;63.48;96545.28;5011984;28;20048;-76
2021/06/15 05:25:20;;;;;;;11.02;3.85;;;;;;;15.99;64.12;96547.88;5011470;28;20402;-77
2021/06/15 05:27:48;;;;;;;11.00;4.32;;;;;;;16.04;64.26;96542.94;5011891;28;20067;-77
2021/06/15 05:30:16;;;;;;;6.97;4.07;;;;;;;16.11;64.71;96539.59;5011241;28;20053;-77
2021/06/15 05:32:43;;;;;;;8.45;4.30;;;;;;;16.16;64.28;96542.91;5011379;28;20385;-77
2021/06/15 05:35:11;;;;;;;10.25;4.35;;;;;;;16.24;64.15;96549.41;5011087;28;20463;-79
2021/06/15 05:37:38;;;;;;;9.75;4.30;;;;;;;16.29;63.38;96546.41;5011748;28;20045;-76
2021/06/15 05:40:05;;;;;;;10.07;5.05;;;;;;;16.35;63.78;96552.44;5011198;28;20374;-76
2021/06/15 05:42:32;;;;;;;11.77;4.57;;;;;;;16.42;64.02;96553.44;5011345;28;20057;-77
2021/06/15 05:44:58;;;;;;;8.23;4.00;;;;;;;16.50;63.69;96556.41;5011678;28;20049;-76
2021/06/15 05:47:28;;;;;;;10.30;4.22;;;;;;;16.56;62.55;96555.00;5010834;28;20050;-77
2021/06/15 05:49:54;;;;;;;11.10;3.95;;;;;;;16.64;61.71;96554.00;5011513;28;20041;-76
2021/06/15 05:52:21;;;;;;;6.63;3.30;;;;;;;16.73;61.29;96560.19;5011095;28;22707;-77
2021/06/15 05:54:47;;;;;;;12.00;4.28;;;;;;;16.83;59.62;96559.66;5011503;28;20050;-77
2021/06/15 05:57:14;;;;;;;9.52;3.97;;;;;;;16.91;55.77;96566.97;5010986;28;20046;-77
2021/06/15 05:59:41;;;;;;;13.55;3.88;;;;;;;17.01;56.46;96564.81;5011387;28;20100;-76
2021/06/15 06:02:08;;;;;;;11.35;4.20;;;;;;;17.10;56.99;96568.19;5010744;28;20046;-76
2021/06/15 06:04:47;;;;;;;8.35;3.45;;;;;;;17.19;57.33;96571.56;5011168;28;20046;-77
2021/06/15 06:09:58;;;;;;;8.50;4.20;;;;;;;17.33;55.25;96566.44;5011090;28;20123;-77
2021/06/15 06:12:25;;;;;;;7.90;3.80;;;;;;;17.46;54.75;96567.91;5010538;28;20782;-77
2021/06/15 06:14:52;;;;;;;8.40;3.92;;;;;;;17.55;54.88;96556.72;5010992;28;20045;-77
2021/06/15 06:17:18;;;;;;;11.30;4.80;;;;;;;17.62;54.60;96567.09;5010312;28;20053;-77
2021/06/15 06:19:48;;;;;;;7.90;4.00;;;;;;;17.74;54.25;96558.72;5010854;28;20697;-77
2021/06/15 06:22:15;;;;;;;13.65;4.20;;;;;;;17.88;54.33;96561.81;5010999;28;20050;-77
2021/06/15 06:24:41;;;;;;;11.10;3.97;;;;;;;17.96;51.59;96560.81;5015275;28;20049;-77
2021/06/15 06:27:09;;;;;;;9.63;4.38;;;;;;;18.05;54.30;96557.84;5014595;28;20468;-77
2021/06/15 06:29:35;;;;;;;7.20;4.20;;;;;;;18.11;53.03;96572.13;4997382;28;20412;-76
2021/06/15 06:32:04;;;;;;;9.95;4.13;;;;;;;18.23;52.80;96574.75;5014412;28;20045;-76
2021/06/15 06:34:30;;;;;;;9.30;3.80;;;;;;;18.31;51.76;96559.94;5014845;28;20049;-77
2021/06/15 06:36:58;;;;;;;7.88;3.42;;;;;;;18.39;52.57;96561.69;5014106;28;20042;-77
2021/06/15 06:39:25;;;;;;;7.75;3.45;;;;;;;18.51;53.74;96552.47;5014300;28;20054;-77
2021/06/15 06:41:51;;;;;;;7.82;3.65;;;;;;;18.59;53.59;96553.41;5014968;28;20054;-82
2021/06/15 06:44:18;;;;;;;11.52;4.03;;;;;;;18.66;53.12;96564.56;5015425;28;20045;-81
2021/06/15 06:46:44;;;;;;;9.18;4.03;;;;;;;18.81;53.61;96566.47;5015241;28;20041;-81
2021/06/15 06:49:11;;;;;;;7.68;3.33;;;;;;;18.88;52.15;96566.59;5015657;28;20058;-82
2021/06/15 06:51:38;;;;;;;8.75;3.53;;;;;;;18.92;51.03;96567.47;5016206;28;20049;-82
2021/06/15 06:54:06;;;;;;;10.75;3.60;;;;;;;19.02;50.61;96572.38;5015653;28;20046;-79
2021/06/15 06:56:32;;;;;;;7.18;3.35;;;;;;;19.09;51.20;96568.13;5015761;28;20045;-80
2021/06/15 06:58:59;;;;;;;6.65;3.40;;;;;;;19.21;51.25;96563.25;4998382;28;20069;-81
2021/06/15 07:01:25;;;;;;;9.10;3.45;;;;;;;19.27;51.15;96566.47;5015260;28;20049;-81
2021/06/15 07:03:52;;;;;;;6.45;3.35;;;;;;;19.34;50.54;96561.06;5015794;28;20503;-82
2021/06/15 07:06:19;;;;;;;4.70;3.40;;;;;;;19.45;51.96;96555.72;5015283;28;20053;-81
2021/06/15 07:08:45;;;;;;;7.75;3.90;;;;;;;19.58;51.67;96559.09;5015545;28;20435;-81
2021/06/15 07:11:13;;;;;;;6.50;3.40;;;;;;;19.66;48.93;96561.59;4997881;28;20061;-82
2021/06/15 07:13:39;;;;;;;8.43;3.72;;;;;;;19.77;48.88;96550.69;5015646;28;20045;-81
2021/06/15 07:16:07;;;;;;;9.60;3.42;;;;;;;19.82;49.53;96550.38;5015276;28;20053;-82
2021/06/15 07:18:36;;;;;;;9.00;3.42;;;;;;;19.92;51.43;96552.50;5015678;28;20041;-82
2021/06/15 07:21:02;;;;;;;8.20;3.53;;;;;;;20.02;50.58;96551.84;5014810;28;20038;-81
2021/06/15 07:23:29;;;;;;;9.85;3.58;;;;;;;20.11;49.68;96550.78;5015185;28;20519;-82
2021/06/15 07:25:55;;;;;;;9.68;3.35;;;;;;;20.19;49.12;96552.44;5015306;28;20053;-80
2021/06/15 07:28:23;;;;;;;10.45;4.25;;;;;;;20.28;49.51;96550.19;5012308;28;20054;-74
2021/06/15 07:30:50;;;;;;;14.48;3.80;;;;;;;20.43;50.01;96549.19;4994607;28;20058;-72
2021/06/15 07:33:16;;;;;;;8.82;3.22;;;;;;;20.54;47.48;96550.16;4993902;28;20046;-75
2021/06/15 07:35:43;;;;;;;8.23;3.25;;;;;;;20.62;47.55;96550.22;4998468;28;20041;-72
2021/06/15 07:38:09;;;;;;;7.45;3.45;;;;;;;20.72;43.29;96553.09;5013630;28;20527;-79
2021/06/15 07:40:36;;;;;;;17.35;3.03;;;;;;;20.79;44.38;96544.09;5014527;28;20042;-79
2021/06/15 07:43:03;;;;;;;8.35;2.78;;;;;;;20.87;46.07;96545.75;5013216;28;20046;-78
2021/06/15 07:45:35;;;;;;;9.95;3.03;;;;;;;20.95;44.13;96547.41;5012526;28;20405;-78
2021/06/15 07:48:01;;;;;;;10.05;3.53;;;;;;;21.03;42.01;96548.25;5013681;28;20046;-77
2021/06/15 07:50:28;;;;;;;11.15;3.38;;;;;;;21.09;41.93;96542.03;5013402;28;20420;-79
2021/06/15 07:52:54;;;;;;;10.75;3.58;;;;;;;21.17;38.89;96553.16;5013348;28;20046;-79
2021/06/15 07:55:21;;;;;;;4.90;2.30;;;;;;;21.28;38.58;96548.50;5013040;28;20041;-79
2021/06/15 07:57:48;;;;;;;7.97;2.97;;;;;;;21.43;39.61;96550.22;5013352;28;20045;-78
2021/06/15 08:00:16;;;;;;;11.73;3.25;;;;;;;21.54;38.35;96551.09;5012860;28;20052;-79
2021/06/15 08:02:45;;;;;;;7.82;2.72;;;;;;;21.67;39.03;96548.03;5013245;28;20045;-79
2021/06/15 08:05:12;;;;;;;6.28;2.35;;;;;;;21.81;41.15;96548.13;5012754;28;20052;-78
2021/06/15 08:07:38;;;;;;;6.03;2.28;;;;;;;21.96;39.09;96549.78;5013313;28;20050;-79
2021/06/15 08:10:06;;;;;;;6.55;2.55;;;;;;;22.11;40.40;96545.16;5012861;28;20532;-79
2021/06/15 08:12:33;;;;;;;6.78;3.17;;;;;;;22.35;40.54;96549.25;5012588;28;20042;-79
2021/06/15 08:14:59;;;;;;;7.55;2.83;;;;;;;23.09;38.71;96540.34;5013101;28;20053;-79
2021/06/15 08:17:25;;;;;;;6.30;2.70;;;;;;;24.80;33.86;96530.06;5012461;28;20054;-79
2021/06/15 08:19:53;;;;;;;7.60;2.33;;;;;;;26.41;35.08;96533.03;5012970;28;20507;-79
2021/06/15 08:22:20;;;;;;;6.82;2.70;;;;;;;27.61;28.58;96534.53;5012610;28;20527;-78
2021/06/15 08:24:46;;;;;;;3.78;2.20;;;;;;;28.52;27.82;96526.88;5012286;28;20034;-80
2021/06/15 08:27:13;;;;;;;9.43;2.70;;;;;;;29.43;27.40;96524.44;5012496;28;20042;-78
2021/06/15 08:29:39;;;;;;;8.95;2.67;;;;;;;29.83;23.20;96525.84;5012649;28;20042;-79
2021/06/15 08:32:06;;;;;;;7.05;2.63;;;;;;;30.21;24.49;96525.25;5012473;28;20048;-78
2021/06/15 08:34:34;;;;;;;8.70;2.58;;;;;;;30.59;22.48;96527.41;5012833;28;20053;-79
2021/06/15 08:37:02;;;;;;;5.88;2.35;;;;;;;30.82;23.02;96534.81;5012555;28;20048;-79
2021/06/15 08:39:29;;;;;;;7.25;2.40;;;;;;;31.13;25.54;96537.88;5012698;28;20046;-78
2021/06/15 08:41:55;;;;;;;5.00;2.10;;;;;;;31.49;22.35;96540.38;5012502;28;20504;-79
2021/06/15 08:44:22;;;;;;;10.15;2.80;;;;;;;31.42;23.20;96538.53;5012232;28;20060;-78
2021/06/15 08:46:49;;;;;;;6.25;2.50;;;;;;;31.52;21.90;96544.28;5012179;28;20053;-78
2021/06/15 08:49:16;;;;;;;7.10;2.55;;;;;;;31.55;26.55;96535.72;5012190;28;20046;-79
2021/06/15 08:51:44;;;;;;;10.55;2.70;;;;;;;31.59;23.23;96541.25;5012513;28;20053;-78
2021/06/15 08:54:15;;;;;;;5.38;2.45;;;;;;;31.37;21.74;96536.28;5012172;28;20049;-79
2021/06/15 08:56:43;;;;;;;9.18;2.67;;;;;;;31.07;21.77;96540.47;5012625;28;20042;-80
2021/06/15 08:59:19;;;;;;;8.40;2.60;;;;;;;30.55;24.25;96533.16;5011704;28;20048;-80
2021/06/15 09:01:46;;;;;;;10.70;2.67;;;;;;;30.04;23.74;96537.75;5012447;28;20070;-81
2021/06/15 09:04:13;;;;;;;11.32;2.88;;;;;;;29.61;25.98;96533.25;5011566;28;20034;-80
2021/06/15 09:06:39;;;;;;;9.48;2.90;;;;;;;29.50;24.96;96527.09;5012360;28;20046;-80
2021/06/15 09:09:06;;;;;;;10.38;2.92;;;;;;;29.27;24.65;96530.84;5011878;28;20069;-79
2021/06/15 09:11:50;;;;;;;7.22;2.40;;;;;;;29.05;25.29;96527.75;5012306;28;20049;-80
2021/06/15 09:14:17;;;;;;;7.15;2.63;;;;;;;29.07;26.15;96533.69;5011585;28;20042;-80
2021/06/15 09:16:47;;;;;;;8.75;2.83;;;;;;;29.10;28.30;96527.25;5011988;28;20072;-81
2021/06/15 09:19:16;;;;;;;8.80;3.15;;;;;;;29.01;26.96;96527.03;5011549;28;20104;-80
2021/06/15 09:21:45;;;;;;;6.53;2.63;;;;;;;28.77;27.25;96520.75;5011970;28;20047;-80
2021/06/15 09:24:14;;;;;;;6.55;2.85;;;;;;;28.49;27.76;96522.13;5011196;28;20046;-80
2021/06/15 09:27:05;;;;;;;7.22;2.90;;;;;;;28.42;29.14;96525.09;5011875;28;20048;-82
2021/06/15 09:29:40;;;;;;;8.93;2.90;;;;;;;28.33;26.04;96534.06;5011750;28;20042;-81
2021/06/15 09:32:07;;;;;;;10.68;3.60;;;;;;;28.19;27.34;96537.91;5011655;28;20045;-79
2021/06/15 09:34:34;;;;;;;8.00;2.88;;;;;;;28.06;25.91;96522.97;5011816;28;20042;-80
2021/06/15 09:37:04;;;;;;;7.72;2.55;;;;;;;27.88;27.55;96544.88;5011671;28;20056;-78
2021/06/15 09:39:31;;;;;;;8.50;2.70;;;;;;;27.87;28.11;96532.09;5011496;28;20042;-77
2021/06/15 09:41:59;;;;;;;12.82;3.05;;;;;;;27.88;29.78;96533.69;5011732;28;20050;-78
2021/06/15 09:44:29;;;;;;;5.65;2.42;;;;;;;27.95;26.92;96525.19;5010918;28;20065;-79
2021/06/15 09:46:58;;;;;;;9.32;3.20;;;;;;;27.88;29.11;96528.09;5011307;28;20057;-78
2021/06/15 09:49:30;;;;;;;5.70;2.85;;;;;;;27.90;28.88;96520.06;5011087;28;20049;-78
2021/06/15 09:52:15;;;;;;;9.63;3.22;;;;;;;27.95;29.75;96525.19;5011567;28;20500;-79
2021/06/15 09:54:43;;;;;;;9.98;3.05;;;;;;;28.04;30.27;96526.19;5011208;28;20048;-80
2021/06/15 09:57:13;;;;;;;9.20;3.15;;;;;;;28.12;30.09;96518.44;5010406;28;20037;-79
2021/06/15 09:59:58;;;;;;;10.15;3.47;;;;;;;28.18;27.50;96516.72;5011464;28;20046;-79
2021/06/15 10:02:24;;;;;;;7.00;2.60;;;;;;;28.11;29.05;96519.66;5010839;28;20061;-80
2021/06/15 10:04:51;;;;;;;10.65;3.40;;;;;;;28.10;26.82;96529.28;5011302;28;20488;-80
2021/06/15 10:07:25;;;;;;;6.45;2.80;;;;;;;28.10;28.21;96523.69;5010795;28;20042;-78
2021/06/15 10:09:52;;;;;;;7.35;3.20;;;;;;;28.24;31.45;96517.81;5011356;28;20046;-78
2021/06/15 10:12:20;;;;;;;10.88;3.08;;;;;;;28.35;29.06;96512.03;5010722;28;20045;-80
2021/06/15 10:14:47;;;;;;;10.90;3.40;;;;;;;28.33;30.07;96515.25;5011029;28;20539;-80
2021/06/15 10:17:14;;;;;;;7.78;2.85;;;;;;;28.42;29.33;96516.69;5010703;28;20472;-79
2021/06/15 10:19:41;;;;;;;7.57;3.22;;;;;;;28.00;27.95;96525.47;5011089;28;20042;-78
2021/06/15 10:22:08;;;;;;;7.63;3.30;;;;;;;27.99;29.97;96523.09;5010859;28;20038;-78
2021/06/15 10:24:35;;;;;;;7.13;3.30;;;;;;;28.13;30.41;96516.44;5011028;28;20124;-78
2021/06/15 10:27:03;;;;;;;11.05;3.22;;;;;;;28.24;28.20;96505.81;5010493;28;20042;-77
2021/06/15 10:29:32;;;;;;;9.02;3.28;;;;;;;28.22;29.51;96520.25;5010597;28;20049;-78
2021/06/15 10:31:59;;;;;;;9.95;3.35;;;;;;;28.33;29.59;96504.03;5010548;28;20049;-80
2021/06/15 10:34:53;;;;;;;6.05;2.60;;;;;;;28.31;27.76;96506.47;5010410;28;20041;-78
2021/06/15 10:37:42;;;;;;;6.13;2.40;;;;;;;28.34;29.23;96500.00;5010232;28;20046;-78
2021/06/15 10:40:45;;;;;;;9.40;3.17;;;;;;;28.40;28.93;96496.72;5010193;28;20046;-80
2021/06/15 10:43:17;;;;;;;6.10;2.70;;;;;;;28.51;30.18;96498.09;5005180;28;20042;-80
2021/06/15 10:45:47;;;;;;;6.93;2.95;;;;;;;28.61;30.64;96501.88;5010761;28;20516;-78
2021/06/15 10:48:43;;;;;;;6.78;2.75;;;;;;;28.66;31.88;96509.78;5010355;28;20038;-81
2021/06/15 10:51:22;;;;;;;8.05;3.05;;;;;;;28.54;29.58;96502.03;4976040;28;20096;-78
2021/06/15 10:53:49;;;;;;;7.85;3.20;;;;;;;28.55;29.97;96500.78;5010895;28;20042;-78
2021/06/15 10:56:17;;;;;;;7.97;2.65;;;;;;;28.57;30.16;96506.78;5010466;28;20042;-78
2021/06/15 10:59:04;;;;;;;8.15;3.33;;;;;;;28.64;32.31;96503.81;5006352;28;20046;-78
2021/06/15 11:01:32;;;;;;;6.10;2.70;;;;;;;28.65;29.81;96502.56;4990793;28;20046;-78
2021/06/15 11:04:01;;;;;;;8.80;2.58;;;;;;;28.64;31.67;96501.00;4991132;28;20098;-78
2021/06/15 11:06:52;;;;;;;7.82;2.60;;;;;;;28.60;27.44;96501.06;5001757;28;20480;-78
2021/06/15 11:09:35;;;;;;;10.18;3.20;;;;;;;28.50;28.68;96501.31;5012120;28;20054;-77
2021/06/15 11:12:21;;;;;;;;;;;;;;;28.49;31.18;96506.13;5014027;28;20129;-76
2021/06/15 11:15:10;;;;;;;7.82;2.92;;;;;;;28.46;31.47;96497.81;5013849;28;19922;-77
2021/06/15 11:17:46;;;;;;;6.97;2.92;;;;;;;28.49;30.07;96496.94;5013897;28;20046;-78
2021/06/15 11:20:14;;;;;;;10.85;3.53;;;;;;;28.49;31.31;96499.72;5013408;28;20053;-80
2021/06/15 11:23:01;;;;;;;12.50;3.45;;;;;;;28.49;32.12;96494.13;5014158;28;20045;-78
2021/06/15 11:25:49;;;;;;;8.50;2.83;;;;;;;28.45;32.73;96493.41;5013602;28;20045;-77
2021/06/15 11:28:39;;;;;;;8.40;3.33;;;;;;;28.39;29.29;96495.91;5013011;28;20112;-77
2021/06/15 11:31:35;;;;;;;6.63;2.78;;;;;;;28.42;31.43;96494.28;4993771;28;20508;-79
2021/06/15 11:34:26;;;;;;;9.27;2.95;;;;;;;28.41;29.57;96487.91;4993816;28;20046;-75
2021/06/15 11:36:57;;;;;;;8.65;3.25;;;;;;;28.43;31.04;96490.25;5008884;28;20102;-82
2021/06/15 11:39:42;;;;;;;9.67;2.97;;;;;;;28.41;31.07;96481.50;5014807;28;20120;-80
2021/06/15 11:42:19;;;;;;;8.32;3.05;;;;;;;28.46;31.34;96478.19;5015079;28;20096;-82
2021/06/15 11:44:56;;;;;;;7.47;2.72;;;;;;;28.46;29.88;96478.19;5015798;28;20052;-83
2021/06/15 11:47:23;;;;;;;10.93;2.50;;;;;;;28.49;32.92;96472.50;5014907;28;20559;-81